createdAt,value
2024-02-24T00:01:54.140Z,93323.38
2024-02-24T00:04:21.208Z,93339.75
2024-02-24T00:06:48.217Z,93336.47
2024-02-24T00:09:15.166Z,93337.06
2024-02-24T00:11:42.341Z,93333.09
2024-02-24T00:14:09.348Z,93347.97
2024-02-24T00:16:36.341Z,93348.28
2024-02-24T00:19:03.306Z,93354.31
2024-02-24T00:21:30.395Z,93351.38
2024-02-24T00:23:57.311Z,93355.09
2024-02-24T00:26:24.432Z,93358.28
2024-02-24T00:28:51.226Z,93353.66
2024-02-24T00:31:18.514Z,93356.69
2024-02-24T00:33:45.442Z,93352.53
2024-02-24T00:36:12.510Z,93353.72
2024-02-24T00:38:40.083Z,93345.38
2024-02-24T00:41:07.256Z,93363.19
2024-02-24T00:43:34.448Z,93363.34
2024-02-24T00:46:01.700Z,93347.56
2024-02-24T00:48:31.994Z,93349.16
2024-02-24T00:50:59.350Z,93365.34
2024-02-24T00:53:28.329Z,93380.94
2024-02-24T00:55:55.535Z,93374.59
2024-02-24T00:58:22.468Z,93379.72
2024-02-24T01:00:49.574Z,93386.50
2024-02-24T01:03:16.655Z,93381.75
2024-02-24T01:05:43.902Z,93377.16
2024-02-24T01:08:11.104Z,93385.59
2024-02-24T01:10:38.305Z,93390.94
2024-02-24T01:13:05.334Z,93402.66
2024-02-24T01:15:33.785Z,93406.44
2024-02-24T01:18:02.001Z,93406.97
2024-02-24T01:20:30.559Z,93407.59
2024-02-24T01:22:59.636Z,93418.25
2024-02-24T01:25:27.091Z,93409.88
2024-02-24T01:27:55.000Z,93425.16
2024-02-24T01:30:22.060Z,93434.59
2024-02-24T01:32:49.439Z,93435.81
2024-02-24T01:35:16.782Z,93443.28
2024-02-24T01:37:43.749Z,93446.06
2024-02-24T01:40:11.059Z,93440.69
2024-02-24T01:42:38.168Z,93448.38
2024-02-24T01:45:05.744Z,93445.19
2024-02-24T01:47:32.871Z,93444.22
2024-02-24T01:50:00.075Z,93455.09
2024-02-24T01:52:27.304Z,93454.28
2024-02-24T01:54:59.898Z,93458.25
2024-02-24T01:57:29.324Z,93464.03
2024-02-24T01:59:57.780Z,93453.06
2024-02-24T02:02:29.709Z,93458.00
2024-02-24T02:04:56.717Z,93455.69
2024-02-24T02:07:23.660Z,93472.00
2024-02-24T02:09:58.037Z,93477.97
2024-02-24T02:12:26.165Z,93477.19
2024-02-24T02:14:53.377Z,93475.72
2024-02-24T02:17:20.930Z,93479.97
2024-02-24T02:19:48.241Z,93470.13
2024-02-24T02:22:19.374Z,93489.53
2024-02-24T02:24:46.994Z,93485.03
2024-02-24T02:27:13.934Z,93496.50
2024-02-24T02:29:41.420Z,93491.72
2024-02-24T02:32:09.589Z,93494.03
2024-02-24T02:34:37.315Z,93490.06
2024-02-24T02:37:04.685Z,93502.16
2024-02-24T02:39:32.300Z,93510.25
2024-02-24T02:41:59.429Z,93521.63
2024-02-24T02:44:26.463Z,93523.50
2024-02-24T02:46:53.549Z,93526.50
2024-02-24T02:49:20.724Z,93533.38
2024-02-24T02:51:47.870Z,93533.28
2024-02-24T02:54:14.933Z,93532.38
2024-02-24T02:56:42.095Z,93535.84
2024-02-24T02:59:09.154Z,93544.56
2024-02-24T03:01:36.085Z,93539.38
2024-02-24T03:04:03.191Z,93540.97
2024-02-24T03:06:33.630Z,93555.44
2024-02-24T03:09:00.800Z,93556.84
2024-02-24T03:11:28.405Z,93564.22
2024-02-24T03:13:55.593Z,93554.00
2024-02-24T03:16:22.690Z,93558.25
2024-02-24T03:18:50.735Z,93543.91
2024-02-24T03:21:28.772Z,93567.59
2024-02-24T03:24:02.627Z,93578.91
2024-02-24T03:26:29.959Z,93591.88
2024-02-24T03:28:56.981Z,93596.28
2024-02-24T03:31:23.971Z,93600.16
2024-02-24T03:33:51.152Z,93607.84
2024-02-24T03:36:20.041Z,93599.03
2024-02-24T03:38:47.470Z,93598.22
2024-02-24T03:41:14.524Z,93608.34
2024-02-24T03:43:41.590Z,93611.66
2024-02-24T03:46:08.625Z,93606.16
2024-02-24T03:48:35.901Z,93599.81
2024-02-24T03:51:03.178Z,93609.09
2024-02-24T03:53:30.188Z,93606.59
2024-02-24T03:55:57.188Z,93617.00
2024-02-24T03:58:24.254Z,93617.53
2024-02-24T04:00:52.600Z,93619.06
2024-02-24T04:03:20.316Z,93617.19
2024-02-24T04:05:48.366Z,93629.34
2024-02-24T04:08:16.048Z,93627.97
2024-02-24T04:10:47.372Z,93639.19
2024-02-24T04:13:14.565Z,93642.78
2024-02-24T04:15:48.563Z,93646.03
2024-02-24T04:18:16.502Z,93637.56
2024-02-24T04:20:47.872Z,93635.59
2024-02-24T04:23:15.272Z,93640.81
2024-02-24T04:25:42.160Z,93654.59
2024-02-24T04:28:09.864Z,93650.31
2024-02-24T04:30:38.866Z,93652.63
2024-02-24T04:33:06.582Z,93670.63
2024-02-24T04:35:33.804Z,93669.28
2024-02-24T04:38:00.913Z,93670.25
2024-02-24T04:40:27.868Z,93660.34
2024-02-24T04:42:54.912Z,93672.97
2024-02-24T04:45:21.960Z,93654.63
2024-02-24T04:47:49.086Z,93664.50
2024-02-24T04:50:16.221Z,93664.06
2024-02-24T04:52:43.226Z,93677.91
2024-02-24T04:55:10.245Z,93669.00
2024-02-24T04:57:37.171Z,93666.28
2024-02-24T05:00:04.568Z,93661.84
2024-02-24T05:02:31.575Z,93666.63
2024-02-24T05:04:58.666Z,93672.47
2024-02-24T05:07:25.845Z,93669.00
2024-02-24T05:09:52.773Z,93680.31
2024-02-24T05:12:19.942Z,93678.09
2024-02-24T05:14:51.271Z,93682.06
2024-02-24T05:17:18.236Z,93677.56
2024-02-24T05:19:45.379Z,93681.97
2024-02-24T05:22:12.259Z,93684.59
2024-02-24T05:24:39.332Z,93688.31
2024-02-24T05:27:06.666Z,93708.41
2024-02-24T05:29:34.232Z,93704.50
2024-02-24T05:32:01.340Z,93717.88
2024-02-24T05:34:28.516Z,93731.63
2024-02-24T05:36:55.949Z,93732.94
2024-02-24T05:39:22.903Z,93740.72
2024-02-24T05:41:51.708Z,93740.34
2024-02-24T05:44:18.975Z,93733.56
2024-02-24T05:46:46.093Z,93736.41
2024-02-24T05:49:12.978Z,93744.78
2024-02-24T05:51:40.940Z,93748.44
2024-02-24T05:54:07.954Z,93746.16
2024-02-24T05:56:35.020Z,93760.19
2024-02-24T05:59:02.069Z,93765.09
2024-02-24T06:01:28.946Z,93756.44
2024-02-24T06:03:56.211Z,93761.84
2024-02-24T06:06:23.383Z,93765.38
2024-02-24T06:08:50.595Z,93771.38
2024-02-24T06:11:17.936Z,93782.78
2024-02-24T06:13:47.385Z,93782.25
2024-02-24T06:16:14.392Z,93780.03
2024-02-24T06:18:41.430Z,93789.91
2024-02-24T06:21:10.319Z,93794.53
2024-02-24T06:23:37.405Z,93797.88
2024-02-24T06:26:04.606Z,93790.22
2024-02-24T06:28:31.530Z,93804.59
2024-02-24T06:30:59.064Z,93814.16
2024-02-24T06:33:26.145Z,93808.94
2024-02-24T06:35:53.570Z,93805.13
2024-02-24T06:38:20.781Z,93817.88
2024-02-24T06:40:47.877Z,93812.31
2024-02-24T06:43:15.380Z,93812.44
2024-02-24T06:45:42.446Z,93815.94
2024-02-24T06:48:09.559Z,93815.44
2024-02-24T06:50:36.668Z,93819.59
2024-02-24T06:53:03.856Z,93815.53
2024-02-24T06:55:30.942Z,93813.31
2024-02-24T06:57:57.861Z,93816.50
2024-02-24T07:00:24.953Z,93818.25
2024-02-24T07:02:52.449Z,93826.06
2024-02-24T07:05:19.637Z,93822.53
2024-02-24T07:07:46.629Z,93818.84
2024-02-24T07:10:13.759Z,93822.72
2024-02-24T07:12:43.527Z,93827.50
2024-02-24T07:15:13.009Z,93835.91
2024-02-24T07:17:40.433Z,93825.59
2024-02-24T07:20:08.401Z,93839.19
2024-02-24T07:22:35.548Z,93840.63
2024-02-24T07:25:02.547Z,93832.56
2024-02-24T07:27:30.052Z,93839.28
2024-02-24T07:29:57.386Z,93837.19
2024-02-24T07:32:24.825Z,93831.59
2024-02-24T07:34:52.030Z,93837.25
2024-02-24T07:37:19.196Z,93841.06
2024-02-24T07:39:46.192Z,93833.91
2024-02-24T07:42:13.260Z,93833.56
2024-02-24T07:44:40.370Z,93830.44
2024-02-24T07:47:10.570Z,93830.72
2024-02-24T07:49:37.708Z,93824.53
2024-02-24T07:52:05.931Z,93814.03
2024-02-24T07:54:33.132Z,93813.28
2024-02-24T07:57:00.350Z,93792.84
2024-02-24T07:59:27.467Z,93798.19
2024-02-24T08:01:54.560Z,93794.81
2024-02-24T08:04:22.157Z,93792.69
2024-02-24T08:06:49.551Z,93774.06
2024-02-24T08:09:16.876Z,93775.53
2024-02-24T08:11:44.375Z,93784.94
2024-02-24T08:14:11.835Z,93764.13
2024-02-24T08:16:39.900Z,93776.97
2024-02-24T08:19:12.023Z,93770.94
2024-02-24T08:21:39.681Z,93762.19
2024-02-24T08:24:10.938Z,93753.25
2024-02-24T08:26:41.286Z,93753.88
2024-02-24T08:29:11.331Z,93744.66
2024-02-24T08:31:39.813Z,93737.38
2024-02-24T08:34:07.356Z,93741.94
2024-02-24T08:36:35.318Z,93736.63
2024-02-24T08:39:03.353Z,93734.91
2024-02-24T08:41:33.433Z,93727.56
2024-02-24T08:44:02.853Z,93734.09
2024-02-24T08:46:30.558Z,93738.63
2024-02-24T08:48:58.391Z,93746.88
2024-02-24T08:51:26.995Z,93744.97
2024-02-24T08:53:54.410Z,93745.22
2024-02-24T08:56:22.908Z,93740.16
2024-02-24T08:58:50.417Z,93713.91
2024-02-24T09:01:18.169Z,93706.78
2024-02-24T09:03:45.423Z,93684.59
2024-02-24T09:06:12.661Z,93653.00
2024-02-24T09:08:39.828Z,93647.78
2024-02-24T09:11:06.915Z,93661.03
2024-02-24T09:13:33.888Z,93625.84
2024-02-24T09:16:00.936Z,93572.84
2024-02-24T09:18:29.387Z,93524.44
2024-02-24T09:20:56.574Z,93482.56
2024-02-24T09:23:23.688Z,93454.59
2024-02-24T09:25:50.673Z,93457.59
2024-02-24T09:28:17.882Z,93482.44
2024-02-24T09:30:44.932Z,93491.25
2024-02-24T09:33:12.103Z,93503.72
2024-02-24T09:35:39.331Z,93492.84
2024-02-24T09:38:06.352Z,93488.25
2024-02-24T09:40:33.455Z,93481.34
2024-02-24T09:43:04.760Z,93487.56
2024-02-24T09:45:43.296Z,93502.78
2024-02-24T09:48:12.016Z,93526.56
2024-02-24T09:50:40.045Z,93537.16
2024-02-24T09:53:07.231Z,93551.78
2024-02-24T09:55:34.370Z,93537.00
2024-02-24T09:58:02.118Z,93541.59
2024-02-24T10:00:29.106Z,93513.78
2024-02-24T10:02:56.584Z,93516.69
2024-02-24T10:05:23.726Z,93518.94
2024-02-24T10:07:50.806Z,93525.56
2024-02-24T10:10:18.365Z,93534.94
2024-02-24T10:13:03.803Z,93555.13
2024-02-24T10:15:31.139Z,93567.53
2024-02-24T10:17:59.528Z,93574.59
2024-02-24T10:20:27.412Z,93559.66
2024-02-24T10:22:55.065Z,93578.75
2024-02-24T10:25:22.055Z,93583.03
2024-02-24T10:27:49.338Z,93596.34
2024-02-24T10:30:17.251Z,93613.41
2024-02-24T10:32:46.702Z,93620.88
2024-02-24T10:35:13.882Z,93616.38
2024-02-24T10:37:56.998Z,93622.06
2024-02-24T10:40:28.028Z,93620.84
2024-02-24T10:42:55.212Z,93628.13
2024-02-24T10:45:22.498Z,93615.00
2024-02-24T10:47:52.534Z,93601.75
2024-02-24T10:50:20.450Z,93592.47
2024-02-24T10:52:49.209Z,93594.06
2024-02-24T10:55:20.489Z,93579.72
2024-02-24T10:57:50.299Z,93572.53
2024-02-24T11:00:32.875Z,93581.09
2024-02-24T11:03:01.159Z,93578.31
2024-02-24T11:05:32.253Z,93580.00
2024-02-24T11:07:59.679Z,93581.59
2024-02-24T11:10:33.609Z,93597.97
2024-02-24T11:13:02.574Z,93584.03
2024-02-24T11:15:29.638Z,93583.56
2024-02-24T11:18:00.227Z,93591.41
2024-02-24T11:20:40.422Z,93595.63
2024-02-24T11:23:27.962Z,93582.06
2024-02-24T11:26:10.590Z,93559.50
2024-02-24T11:28:38.725Z,93556.47
2024-02-24T11:31:05.895Z,93565.47
2024-02-24T11:33:41.023Z,93559.47
2024-02-24T11:36:08.885Z,93547.28
2024-02-24T11:38:36.117Z,93533.00
2024-02-24T11:41:06.723Z,93539.56
2024-02-24T11:43:34.111Z,93546.47
2024-02-24T11:46:02.494Z,93563.28
2024-02-24T11:48:29.619Z,93558.19
2024-02-24T11:50:57.017Z,93563.47
2024-02-24T11:53:24.573Z,93556.50
2024-02-24T11:55:51.808Z,93541.75
2024-02-24T11:58:19.208Z,93551.00
2024-02-24T12:00:46.894Z,93559.06
2024-02-24T12:03:15.246Z,93561.84
2024-02-24T12:05:43.037Z,93553.09
2024-02-24T12:08:12.548Z,93550.97
2024-02-24T12:10:40.390Z,93554.03
2024-02-24T12:13:09.790Z,93574.03
2024-02-24T12:15:47.241Z,93580.13
2024-02-24T12:18:14.792Z,93579.00
2024-02-24T12:20:43.168Z,93562.47
2024-02-24T12:23:11.285Z,93548.97
2024-02-24T12:25:38.678Z,93524.03
2024-02-24T12:28:06.515Z,93537.22
2024-02-24T12:30:38.286Z,93550.16
2024-02-24T12:33:06.662Z,93562.06
2024-02-24T12:35:34.197Z,93563.16
2024-02-24T12:38:02.623Z,93558.13
2024-02-24T12:40:31.290Z,93586.81
2024-02-24T12:42:59.467Z,93576.50
2024-02-24T12:45:27.244Z,93579.44
2024-02-24T12:47:55.063Z,93571.28
2024-02-24T12:50:26.234Z,93572.03
2024-02-24T12:52:56.559Z,93556.50
2024-02-24T12:55:23.642Z,93551.03
2024-02-24T12:57:50.981Z,93548.28
2024-02-24T13:00:19.477Z,93550.78
2024-02-24T13:02:47.599Z,93559.00
2024-02-24T13:05:15.837Z,93566.31
2024-02-24T13:07:42.913Z,93577.75
2024-02-24T13:10:10.186Z,93589.53
2024-02-24T13:12:37.292Z,93601.50
2024-02-24T13:15:04.741Z,93603.00
2024-02-24T13:17:31.856Z,93609.84
2024-02-24T13:19:58.930Z,93608.25
2024-02-24T13:22:25.860Z,93622.94
2024-02-24T13:24:52.796Z,93616.22
2024-02-24T13:27:19.776Z,93595.81
2024-02-24T13:29:46.893Z,93621.75
2024-02-24T13:32:13.866Z,93620.44
2024-02-24T13:34:40.883Z,93618.69
2024-02-24T13:37:08.670Z,93606.66
2024-02-24T13:39:35.788Z,93625.41
2024-02-24T13:42:02.867Z,93635.09
2024-02-24T13:44:29.799Z,93635.16
2024-02-24T13:46:56.946Z,93639.16
2024-02-24T13:49:25.917Z,93615.88
2024-02-24T13:51:53.068Z,93614.50
2024-02-24T13:54:20.191Z,93601.22
2024-02-24T13:56:48.173Z,93592.16
2024-02-24T13:59:15.282Z,93599.69
2024-02-24T14:01:42.303Z,93590.66
2024-02-24T14:04:09.293Z,93601.69
2024-02-24T14:06:37.541Z,93610.38
2024-02-24T14:09:07.995Z,93618.47
2024-02-24T14:11:35.619Z,93621.16
2024-02-24T14:14:02.598Z,93613.00
2024-02-24T14:16:31.318Z,93612.75
2024-02-24T14:18:58.769Z,93601.59
2024-02-24T14:21:25.916Z,93620.53
2024-02-24T14:23:54.137Z,93604.41
2024-02-24T14:26:21.250Z,93623.44
2024-02-24T14:28:59.488Z,93637.47
2024-02-24T14:31:28.736Z,93645.13
2024-02-24T14:33:56.197Z,93634.66
2024-02-24T14:36:23.366Z,93639.94
2024-02-24T14:38:50.375Z,93642.78
2024-02-24T14:41:18.400Z,93616.06
2024-02-24T14:43:45.568Z,93633.81
2024-02-24T14:46:12.694Z,93650.94
2024-02-24T14:48:39.839Z,93651.22
2024-02-24T14:51:06.953Z,93667.16
2024-02-24T14:53:34.025Z,93663.22
2024-02-24T14:56:01.511Z,93655.13
2024-02-24T14:58:28.846Z,93640.94
2024-02-24T15:00:55.897Z,93630.22
2024-02-24T15:03:22.970Z,93637.13
2024-02-24T15:05:50.135Z,93633.16
2024-02-24T15:08:17.590Z,93649.56
2024-02-24T15:10:44.758Z,93646.25
2024-02-24T15:13:19.411Z,93652.94
2024-02-24T15:15:50.097Z,93657.91
2024-02-24T15:18:17.274Z,93670.47
2024-02-24T15:20:45.287Z,93650.25
2024-02-24T15:23:14.449Z,93683.47
2024-02-24T15:25:43.171Z,93685.69
2024-02-24T15:28:11.910Z,93689.78
2024-02-24T15:30:40.732Z,93688.84
2024-02-24T15:33:07.951Z,93689.44
2024-02-24T15:35:35.078Z,93688.44
2024-02-24T15:38:02.176Z,93691.91
2024-02-24T15:40:32.712Z,93699.50
2024-02-24T15:43:02.589Z,93706.41
2024-02-24T15:45:29.567Z,93695.53
2024-02-24T15:47:56.730Z,93698.53
2024-02-24T15:50:23.980Z,93700.16
2024-02-24T15:52:52.007Z,93714.25
2024-02-24T15:55:19.053Z,93709.50
2024-02-24T15:57:47.658Z,93732.28
2024-02-24T16:00:15.309Z,93721.59
2024-02-24T16:02:43.628Z,93733.09
2024-02-24T16:05:11.067Z,93741.78
2024-02-24T16:07:38.167Z,93745.75
2024-02-24T16:10:05.753Z,93747.50
2024-02-24T16:12:32.774Z,93762.19
2024-02-24T16:14:59.942Z,93770.31
2024-02-24T16:17:27.024Z,93772.25
2024-02-24T16:19:54.286Z,93780.16
2024-02-24T16:22:21.423Z,93785.53
2024-02-24T16:24:48.289Z,93789.22
2024-02-24T16:27:15.398Z,93795.13
2024-02-24T16:29:42.491Z,93802.59
2024-02-24T16:32:10.117Z,93798.00
2024-02-24T16:34:37.748Z,93809.66
2024-02-24T16:37:05.090Z,93813.75
2024-02-24T16:39:33.848Z,93818.97
2024-02-24T16:42:01.387Z,93824.72
2024-02-24T16:44:28.953Z,93817.78
2024-02-24T16:46:56.438Z,93808.81
2024-02-24T16:49:24.243Z,93824.72
2024-02-24T16:51:54.042Z,93828.50
2024-02-24T16:54:21.358Z,93840.03
2024-02-24T16:56:48.470Z,93847.28
2024-02-24T16:59:15.754Z,93841.09
2024-02-24T17:01:42.936Z,93849.03
2024-02-24T17:04:10.040Z,93845.19
2024-02-24T17:06:37.409Z,93838.66
2024-02-24T17:09:04.941Z,93851.44
2024-02-24T17:11:32.648Z,93846.84
2024-02-24T17:14:00.065Z,93857.31
2024-02-24T17:16:27.249Z,93857.75
2024-02-24T17:18:54.564Z,93868.38
2024-02-24T17:21:21.693Z,93870.66
2024-02-24T17:23:49.223Z,93863.63
2024-02-24T17:26:19.851Z,93863.22
2024-02-24T17:28:51.385Z,93855.69
2024-02-24T17:31:18.450Z,93876.88
2024-02-24T17:33:47.134Z,93878.09
2024-02-24T17:36:14.372Z,93878.97
2024-02-24T17:38:41.489Z,93877.09
2024-02-24T17:41:08.717Z,93875.81
2024-02-24T17:43:35.688Z,93875.81
2024-02-24T17:46:02.913Z,93873.19
2024-02-24T17:48:30.216Z,93887.09
2024-02-24T17:50:57.508Z,93905.09
2024-02-24T17:53:24.677Z,93909.13
2024-02-24T17:55:51.783Z,93906.94
2024-02-24T17:58:29.359Z,93902.78
2024-02-24T18:01:03.638Z,93909.31
2024-02-24T18:03:30.744Z,93919.03
2024-02-24T18:05:57.916Z,93917.38
2024-02-24T18:08:25.034Z,93929.66
2024-02-24T18:10:52.057Z,93928.94
2024-02-24T18:13:19.162Z,93929.06
2024-02-24T18:15:48.898Z,93923.47
2024-02-24T18:18:18.073Z,93923.31
2024-02-24T18:20:45.238Z,93934.25
2024-02-24T18:23:12.343Z,93941.84
2024-02-24T18:25:39.416Z,93931.88
2024-02-24T18:28:06.578Z,93945.03
2024-02-24T18:30:33.537Z,93941.50
2024-02-24T18:33:00.709Z,93943.13
2024-02-24T18:35:27.828Z,93939.78
2024-02-24T18:37:54.818Z,93949.50
2024-02-24T18:40:21.778Z,93942.56
2024-02-24T18:42:48.808Z,93946.13
2024-02-24T18:45:16.994Z,93956.69
2024-02-24T18:47:44.081Z,93952.13
2024-02-24T18:50:11.605Z,93955.66
2024-02-24T18:52:39.379Z,93961.81
2024-02-24T18:55:06.870Z,93956.09
2024-02-24T18:57:33.928Z,93966.47
2024-02-24T19:00:01.206Z,93966.81
2024-02-24T19:02:28.679Z,93957.25
2024-02-24T19:04:55.735Z,93970.25
2024-02-24T19:07:22.852Z,93966.00
2024-02-24T19:09:49.774Z,93971.03
2024-02-24T19:12:18.057Z,93969.84
2024-02-24T19:14:51.820Z,93971.06
2024-02-24T19:17:22.099Z,93969.28
2024-02-24T19:19:50.385Z,93971.50
2024-02-24T19:22:17.588Z,93974.25
2024-02-24T19:24:44.780Z,93970.41
2024-02-24T19:27:11.875Z,93987.88
2024-02-24T19:29:44.573Z,93978.59
2024-02-24T19:32:12.154Z,93973.88
2024-02-24T19:34:39.538Z,93976.56
2024-02-24T19:37:10.347Z,93982.06
2024-02-24T19:39:37.925Z,93971.22
2024-02-24T19:42:05.622Z,93986.78
2024-02-24T19:44:33.006Z,94000.38
2024-02-24T19:47:00.100Z,93995.44
2024-02-24T19:49:27.221Z,93999.69
2024-02-24T19:51:54.186Z,93997.19
2024-02-24T19:54:21.093Z,93997.91
2024-02-24T19:56:48.036Z,94004.03
2024-02-24T19:59:15.081Z,94003.56
2024-02-24T20:01:41.997Z,94012.66
2024-02-24T20:04:09.356Z,93993.53
2024-02-24T20:06:36.854Z,94011.44
2024-02-24T20:09:04.063Z,94016.97
2024-02-24T20:11:31.289Z,94021.91
2024-02-24T20:13:58.262Z,94022.97
2024-02-24T20:16:25.147Z,94014.00
2024-02-24T20:18:52.282Z,94032.06
2024-02-24T20:21:19.349Z,94044.97
2024-02-24T20:23:47.643Z,94046.63
2024-02-24T20:26:14.715Z,94050.19
2024-02-24T20:28:44.989Z,94052.09
2024-02-24T20:31:14.320Z,94056.34
2024-02-24T20:33:47.527Z,94065.34
2024-02-24T20:36:20.000Z,94058.47
2024-02-24T20:38:48.356Z,94067.38
2024-02-24T20:41:17.900Z,94070.72
2024-02-24T20:43:45.499Z,94062.78
2024-02-24T20:46:12.443Z,94065.69
2024-02-24T20:48:39.529Z,94061.06
2024-02-24T20:51:06.609Z,94068.41
2024-02-24T20:53:33.546Z,94069.38
2024-02-24T20:56:02.226Z,94073.44
2024-02-24T20:58:29.220Z,94081.91
2024-02-24T21:00:56.309Z,94082.56
2024-02-24T21:03:23.405Z,94069.31
2024-02-24T21:05:50.517Z,94061.63
2024-02-24T21:08:17.533Z,94095.03
2024-02-24T21:10:44.486Z,94095.03
2024-02-24T21:13:11.350Z,94100.78
2024-02-24T21:15:38.186Z,94109.34
2024-02-24T21:18:05.377Z,94117.50
2024-02-24T21:20:32.397Z,94120.72
2024-02-24T21:22:59.300Z,94119.66
2024-02-24T21:25:29.264Z,94126.97
2024-02-24T21:27:58.234Z,94127.28
2024-02-24T21:30:26.256Z,94135.13
2024-02-24T21:32:54.167Z,94150.97
2024-02-24T21:35:21.376Z,94150.84
2024-02-24T21:37:48.349Z,94158.97
2024-02-24T21:40:15.817Z,94168.44
2024-02-24T21:42:43.230Z,94173.56
2024-02-24T21:45:10.476Z,94182.78
2024-02-24T21:47:37.462Z,94200.72
2024-02-24T21:50:05.364Z,94202.00
2024-02-24T21:52:36.001Z,94214.97
2024-02-24T21:55:03.495Z,94220.38
2024-02-24T21:57:30.709Z,94227.59
2024-02-24T21:59:57.648Z,94237.66
2024-02-24T22:02:24.708Z,94243.75
2024-02-24T22:04:53.310Z,94251.09
2024-02-24T22:07:22.725Z,94253.31
2024-02-24T22:09:49.814Z,94264.53
2024-02-24T22:12:16.854Z,94266.28
2024-02-24T22:14:43.880Z,94270.78
2024-02-24T22:17:12.445Z,94275.25
2024-02-24T22:19:39.546Z,94273.19
2024-02-24T22:22:06.527Z,94282.13
2024-02-24T22:24:33.672Z,94286.94
2024-02-24T22:27:00.662Z,94282.13
2024-02-24T22:29:27.688Z,94279.41
2024-02-24T22:31:54.722Z,94281.66
2024-02-24T22:34:21.837Z,94279.72
2024-02-24T22:36:48.978Z,94284.69
2024-02-24T22:39:15.968Z,94284.22
2024-02-24T22:41:42.991Z,94287.25
2024-02-24T22:44:09.917Z,94299.75
2024-02-24T22:46:37.213Z,94291.09
2024-02-24T22:49:04.473Z,94295.25
2024-02-24T22:51:31.601Z,94292.06
2024-02-24T22:53:58.582Z,94292.53
2024-02-24T22:56:25.649Z,94289.00
2024-02-24T22:58:56.229Z,94291.56
2024-02-24T23:01:23.375Z,94291.09
2024-02-24T23:03:50.319Z,94299.75
2024-02-24T23:06:17.329Z,94299.09
2024-02-24T23:08:44.338Z,94294.59
2024-02-24T23:11:16.708Z,94304.53
2024-02-24T23:13:49.272Z,94298.78
2024-02-24T23:16:16.082Z,94300.34
2024-02-24T23:18:43.123Z,94304.69
2024-02-24T23:21:11.252Z,94301.16
2024-02-24T23:23:38.392Z,94298.91
2024-02-24T23:26:05.385Z,94319.72
2024-02-24T23:28:32.366Z,94316.69
2024-02-24T23:30:59.612Z,94308.03
2024-02-24T23:33:26.718Z,94318.13
2024-02-24T23:35:53.867Z,94306.78
2024-02-24T23:38:20.826Z,94306.78
2024-02-24T23:40:47.755Z,94302.63
2024-02-24T23:43:14.769Z,94312.41
2024-02-24T23:45:42.794Z,94307.59
2024-02-24T23:48:10.082Z,94311.25
2024-02-24T23:50:37.037Z,94321.03
2024-02-24T23:53:04.086Z,94325.34
2024-02-24T23:55:30.935Z,94323.44
2024-02-24T23:57:57.805Z,94326.47
